Flight Track Log - Related Links

Times and Time Zones

All times are in EDT time to prevent confusion due to time zone crossing. See the N2173F flight status page for this flight to view local times or setup timezone preferences in your user account.


Time Position Orientation Groundspeed Altitude Reporting Facility
EDT Latitude Longitude Course Direction KTS MPH feet Rate Location/Type
Sat 01:15:21 PM 34.9156 -81.1106 213° Southwest 91 105 2,000  Level Atlanta Center
Sat 01:15:45 PM 34.9053 -81.1186 213° Southwest 91 105 2,100 225 Climbing Atlanta Center
Sat 01:16:41 PM 34.8847 -81.1344 212° Southwest 93 107 2,300 256 Climbing Atlanta Center
Sat 01:17:42 PM 34.8622 -81.1506 210° Southwest 95 109 2,600 344 Climbing Atlanta Center
Sat 01:18:43 PM 34.8375 -81.1689 211° Southwest 103 119 3,000 375 Climbing Atlanta Center
Sat 01:19:50 PM 34.8086 -81.1828 202° Southwest 103 119 3,400 328 Climbing Atlanta Center
Sat 01:20:51 PM 34.7819 -81.1936 198° South 101 116 3,700 308 Climbing Atlanta Center
Sat 01:21:47 PM 34.7569 -81.2047 200° South 99 114 4,000 308 Climbing Atlanta Center
Sat 01:22:48 PM 34.7325 -81.2206 208° Southwest 102 117 4,300 344 Climbing Atlanta Center
Sat 01:23:49 PM 34.7011 -81.2242 185° South 105 121 4,700 116 Climbing Atlanta Center
Sat 01:25:00 PM 34.6634 -81.2600 218° Southwest  Level FlightAware Approximate
Sat 01:32:00 PM 34.4341 -81.4660 215° Southwest  Level FlightAware Approximate
Sat 01:33:00 PM 34.3996 -81.4918 212° Southwest  Level FlightAware Approximate
Sat 01:34:00 PM 34.3651 -81.5175 212° Southwest  Level FlightAware Approximate
Sat 01:35:00 PM 34.3306 -81.5431 212° Southwest  Level FlightAware Approximate
Sat 01:36:00 PM 34.2961 -81.5688 212° Southwest  Level FlightAware Approximate
Sat 01:37:00 PM 34.2616 -81.5944 212° Southwest  Level FlightAware Approximate
Sat 01:38:00 PM 34.2271 -81.6200 212° Southwest  Level FlightAware Approximate
Sat 01:39:00 PM 34.1925 -81.6456 211° Southwest  Level FlightAware Approximate
Sat 01:40:00 PM 34.1580 -81.6711 211° Southwest  Level FlightAware Approximate
Sat 01:41:00 PM 34.1234 -81.6967 211° Southwest  Level FlightAware Approximate
Sat 01:42:00 PM 34.0889 -81.7222 211° Southwest  Level FlightAware Approximate
Sat 01:43:00 PM 34.0543 -81.7477 211° Southwest  Level FlightAware Approximate
Sat 01:44:00 PM 34.0198 -81.7731 211° Southwest  Level FlightAware Approximate
Sat 01:45:00 PM 33.9852 -81.7986 211° Southwest  Level FlightAware Approximate
Sat 01:46:00 PM 33.9506 -81.8239 211° Southwest  Level FlightAware Approximate
Sat 01:47:00 PM 33.9160 -81.8492 211° Southwest  Level FlightAware Approximate
Sat 01:48:00 PM 33.8813 -81.8745 211° Southwest  Level FlightAware Approximate
Sat 01:49:00 PM 33.8467 -81.8997 211° Southwest  Level FlightAware Approximate
Sat 01:50:00 PM 33.8120 -81.9250 211° Southwest  Level FlightAware Approximate
Sat 01:51:00 PM 33.7774 -81.9502 211° Southwest  Level FlightAware Approximate
Sat 01:52:00 PM 33.7427 -81.9754 211° Southwest  Level FlightAware Approximate
Sat 01:53:00 PM 33.7081 -82.0005 211° Southwest  Level FlightAware Approximate
Sat 01:54:00 PM 33.6734 -82.0257 211° Southwest  Level FlightAware Approximate
Sat 01:55:00 PM 33.6387 -82.0508 211° Southwest  Level FlightAware Approximate
Sat 01:56:00 PM 33.6040 -82.0759 211° Southwest  Level FlightAware Approximate
Sat 01:57:00 PM 33.5694 -82.1010 211° Southwest  Level FlightAware Approximate
Sat 01:58:00 PM 33.5347 -82.1261 211° Southwest  Level FlightAware Approximate
Sat 01:59:00 PM 33.5000 -82.1512 211° Southwest  Level FlightAware Approximate
Sat 02:00:00 PM 33.4653 -82.1762 211° Southwest  Level FlightAware Approximate
Sat 02:01:00 PM 33.4306 -82.2012 211° Southwest  Level FlightAware Approximate
Sat 02:02:00 PM 33.3959 -82.2262 211° Southwest  Level FlightAware Approximate
Sat 02:03:00 PM 33.3612 -82.2512 211° Southwest  Level FlightAware Approximate
Sat 02:04:00 PM 33.3264 -82.2761 211° Southwest  Level FlightAware Approximate
Sat 02:05:00 PM 33.2917 -82.3010 211° Southwest  Level FlightAware Approximate
Sat 02:06:00 PM 33.2570 -82.3259 211° Southwest  Level FlightAware Approximate
Sat 02:07:00 PM 33.2223 -82.3508 211° Southwest  Level FlightAware Approximate
Sat 02:08:00 PM 33.1875 -82.3757 211° Southwest  Level FlightAware Approximate
Sat 02:09:00 PM 33.1528 -82.4006 211° Southwest  Level FlightAware Approximate
Sat 02:10:00 PM 33.1180 -82.4254 211° Southwest  Level FlightAware Approximate
Sat 02:11:00 PM 33.0833 -82.4502 211° Southwest  Level FlightAware Approximate
Sat 02:11:57 PM 33.1314 -82.3519 213° Southwest 142 163 10,000  Level Atlanta Center
Sat 02:12:00 PM 33.0485 -82.4750 211° Southwest  Level FlightAware Approximate
Sat 02:12:57 PM 33.1006 -82.3775 215° Southwest 142 163 10,000  Level Atlanta Center
Sat 02:13:00 PM 33.0138 -82.4998 211° Southwest  Level FlightAware Approximate
Sat 02:13:57 PM 33.0653 -82.4028 211° Southwest 142 163 10,000  Level Atlanta Center
Sat 02:14:00 PM 32.9790 -82.5246 211° Southwest  Level FlightAware Approximate
Sat 02:14:57 PM 33.0342 -82.4258 212° Southwest 142 163 10,000  Level Atlanta Center
Sat 02:15:00 PM 32.9448 -82.5504 213° Southwest  Level FlightAware Approximate
Sat 02:15:57 PM 32.9992 -82.4511 211° Southwest 142 163 10,000  Level Atlanta Center
Sat 02:16:00 PM 32.9109 -82.5768 213° Southwest  Level FlightAware Approximate
Sat 02:16:57 PM 32.9619 -82.4792 212° Southwest 142 163 10,000  Level Atlanta Center
Sat 02:17:57 PM 32.9289 -82.5044 213° Southwest 147 169 10,000  Level Atlanta Center
Sat 02:18:57 PM 32.8958 -82.5297 213° Southwest 147 169 10,000  Level Atlanta Center
Sat 02:19:57 PM 32.8628 -82.5550 213° Southwest 147 169 10,000  Level Atlanta Center
Sat 02:20:57 PM 32.8297 -82.5803 213° Southwest 147 169 10,000  Level Atlanta Center
Sat 02:21:57 PM 32.7986 -82.6031 212° Southwest 147 169 10,000  Level Atlanta Center
Sat 02:22:57 PM 32.7656 -82.6283 213° Southwest 147 169 10,000  Level Atlanta Center
Sat 02:23:57 PM 32.7303 -82.6536 211° Southwest 147 169 10,000  Level Atlanta Center
Sat 02:24:57 PM 32.6972 -82.6811 215° Southwest 147 169 10,000  Level Atlanta Center
Sat 02:25:57 PM 32.6619 -82.7064 211° Southwest 147 169 10,000  Level Atlanta Center
Sat 02:26:57 PM 32.6289 -82.7292 210° Southwest 147 169 10,000  Level Atlanta Center
Sat 02:27:57 PM 32.5956 -82.7519 210° Southwest 147 169 10,000  Level Atlanta Center
Sat 02:29:33 PM 32.5500 -82.8000 222° Southwest 143 165 10,000  Level Atlanta TRACON
Sat 02:30:39 PM 32.5000 -82.8167 196° South 144 166 10,000  Level Atlanta TRACON
Sat 02:31:42 PM 32.4714 -82.8483 223° Southwest 143 165 10,000  Level Jacksonville Center
Sat 02:32:42 PM 32.4381 -82.8703 209° Southwest 143 165 10,000  Level Jacksonville Center
Sat 02:33:42 PM 32.4044 -82.9025 219° Southwest 148 170 10,000  Level Jacksonville Center
Sat 02:34:42 PM 32.3692 -82.9244 208° Southwest 148 170 10,000  Level Jacksonville Center
Sat 02:35:42 PM 32.3356 -82.9492 212° Southwest 148 170 10,000  Level Jacksonville Center
Sat 02:36:42 PM 32.3022 -82.9736 212° Southwest 148 170 10,000  Level Jacksonville Center
Sat 02:37:42 PM 32.2689 -82.9983 212° Southwest 148 170 10,000  Level Jacksonville Center
Sat 02:38:42 PM 32.2333 -83.0228 210° Southwest 148 170 10,000  Level Jacksonville Center
Sat 02:39:42 PM 32.2019 -83.0497 216° Southwest 148 170 10,000  Level Jacksonville Center
Sat 02:40:42 PM 32.1664 -83.0742 210° Southwest 148 170 10,000  Level Jacksonville Center
Sat 02:41:42 PM 32.1331 -83.0986 212° Southwest 148 170 10,000  Level Jacksonville Center
Sat 02:42:42 PM 32.0994 -83.1231 212° Southwest 148 170 10,000  Level Jacksonville Center
Sat 02:43:42 PM 32.0661 -83.1475 212° Southwest 148 170 10,000  Level Jacksonville Center
Sat 02:43:45 PM 32.0619 -83.1500 207° Southwest 145 167 10,000  Level Jacksonville Center
Sat 02:43:51 PM 32.0597 -83.1525 224° Southwest 145 167 10,000  Level Jacksonville Center
Sat 02:44:42 PM 32.0325 -83.1719 211° Southwest 148 170 10,000  Level Jacksonville Center
Sat 02:44:51 PM 32.0264 -83.1769 215° Southwest 145 167 10,000  Level Jacksonville Center
Sat 02:45:42 PM 31.9992 -83.1964 211° Southwest 148 170 10,000  Level Jacksonville Center
Sat 02:45:52 PM 31.9928 -83.2036 224° Southwest 145 167 10,000  Level Jacksonville Center
Sat 02:46:52 PM 31.9572 -83.2281 210° Southwest 146 168 10,000  Level Jacksonville Center
Sat 02:47:53 PM 31.9239 -83.2547 214° Southwest 146 168 10,000  Level Jacksonville Center
Sat 02:48:54 PM 31.8883 -83.2792 210° Southwest 146 168 10,000  Level Jacksonville Center
Sat 02:49:42 PM 31.8611 -83.2986 211° Southwest 148 170 10,000  Level Jacksonville Center
Sat 02:49:55 PM 31.8547 -83.3036 214° Southwest 146 168 10,000  Level Jacksonville Center
Sat 02:50:42 PM 31.8256 -83.3228 209° Southwest 148 170 10,000  Level Jacksonville Center
Sat 02:50:55 PM 31.8192 -83.3303 225° Southwest 145 167 10,000  Level Jacksonville Center
Sat 02:51:42 PM 31.7919 -83.3497 211° Southwest 148 170 10,000  Level Jacksonville Center
Sat 02:51:56 PM 31.7836 -83.3544 206° Southwest 144 166 10,000  Level Jacksonville Center
Sat 02:52:42 PM 31.7586 -83.3714 210° Southwest 148 170 10,000  Level Jacksonville Center
Sat 02:52:56 PM 31.7500 -83.3786 215° Southwest 144 166 10,000  Level Jacksonville Center
Sat 02:53:42 PM 31.7272 -83.3958 213° Southwest 148 170 10,000  Level Jacksonville Center
Sat 02:53:57 PM 31.7167 -83.4056 218° Southwest 145 167 10,000  Level Jacksonville Center
Sat 02:54:42 PM 31.6936 -83.4200 208° Southwest 148 170 10,000  Level Jacksonville Center
Sat 02:54:57 PM 31.6811 -83.4322 220° Southwest 146 168 10,000  Level Jacksonville Center
Sat 02:55:42 PM 31.6581 -83.4467 208° Southwest 148 170 10,000  Level Jacksonville Center
Sat 02:55:58 PM 31.6453 -83.4564 213° Southwest 145 167 10,000  Level Jacksonville Center
Sat 02:56:42 PM 31.6244 -83.4708 211° Southwest 148 170 10,000  Level Jacksonville Center
Sat 02:56:59 PM 31.6119 -83.4806 214° Southwest 146 168 10,000  Level Jacksonville Center
Sat 02:57:59 PM 31.5764 -83.5072 213° Southwest 146 168 10,000  Level Jacksonville Center
Sat 02:59:00 PM 31.5428 -83.5311 211° Southwest 147 169 10,000  Level Jacksonville Center
Sat 03:00:00 PM 31.5072 -83.5578 213° Southwest 145 167 10,000  Level Jacksonville Center
Sat 03:01:01 PM 31.4694 -83.5844 211° Southwest 145 167 10,000  Level Jacksonville Center
Sat 03:02:02 PM 31.4381 -83.6083 213° Southwest 144 166 10,000  Level Jacksonville Center
Sat 03:03:02 PM 31.4022 -83.6350 212° Southwest 144 166 10,000  Level Jacksonville Center
Sat 03:04:03 PM 31.3686 -83.6567 209° Southwest 144 166 10,000  Level Jacksonville Center
Sat 03:05:03 PM 31.3311 -83.6781 206° Southwest 146 168 10,000  Level Jacksonville Center
Sat 03:06:04 PM 31.2953 -83.6997 207° Southwest 148 170 10,000  Level Jacksonville Center
Sat 03:07:05 PM 31.2578 -83.7214 206° Southwest 145 167 10,000  Level Jacksonville Center
Sat 03:08:05 PM 31.2200 -83.7406 203° Southwest 146 168 10,000  Level Jacksonville Center
Sat 03:10:00 PM 31.1567 -83.7858 211° Southwest  Level FlightAware Approximate
Sat 03:17:00 PM 30.9396 -83.9619 213° Southwest  Level FlightAware Approximate
Sat 03:18:00 PM 30.9047 -83.9810 203° Southwest  Level FlightAware Approximate
Sat 03:19:00 PM 30.8691 -83.9988 203° Southwest  Level FlightAware Approximate
Sat 03:20:00 PM 30.8362 -84.0224 212° Southwest  Level FlightAware Approximate
Sat 03:21:00 PM 30.8035 -84.0464 212° Southwest  Level FlightAware Approximate
Sat 03:22:00 PM 30.7708 -84.0705 212° Southwest  Level FlightAware Approximate
Sat 03:23:00 PM 30.7380 -84.0945 212° Southwest  Level FlightAware Approximate
Sat 03:24:00 PM 30.7053 -84.1185 212° Southwest  Level FlightAware Approximate
Sat 03:25:00 PM 30.6726 -84.1424 212° Southwest  Level FlightAware Approximate
Sat 03:26:00 PM 30.6398 -84.1664 212° Southwest  Level FlightAware Approximate
Sat 03:27:00 PM 30.6066 -84.1894 207° Southwest  Level FlightAware Approximate
Sat 03:28:00 PM 30.5723 -84.2100 207° Southwest  Level FlightAware Approximate
Sat 03:29:00 PM 30.5379 -84.2306 207° Southwest  Level FlightAware Approximate
Sat 03:30:00 PM 30.5057 -84.2554 215° Southwest  Level FlightAware Approximate
Sat 03:31:00 PM 30.4739 -84.2809 215° Southwest  Level FlightAware Approximate
Sat 03:32:00 PM 30.4418 -84.3061 213° Southwest  Level FlightAware Approximate
Sat 03:33:00 PM 30.4094 -84.3305 213° Southwest  Level FlightAware Approximate
Sat 03:34:00 PM 30.3967 -84.3509 213° Southwest  Level Estimated
Sat 03:35:00 PM 30.3967 -84.3509 213° Southwest  Level Estimated

Login

Don't have an account? Register now (free) for customized features, flight alerts, and more!